createdAt,value
2022-12-18T00:01:32.131Z,-11.30
2022-12-18T00:04:06.786Z,-11.30
2022-12-18T00:06:36.625Z,-11.30
2022-12-18T00:09:05.478Z,-11.40
2022-12-18T00:11:33.364Z,-11.50
2022-12-18T00:14:02.058Z,-11.50
2022-12-18T00:16:31.010Z,-11.60
2022-12-18T00:19:01.489Z,-11.70
2022-12-18T00:21:30.452Z,-11.80
2022-12-18T00:23:58.638Z,-11.90
2022-12-18T00:26:28.321Z,-12.00
2022-12-18T00:28:57.638Z,-12.10
2022-12-18T00:31:27.016Z,-12.20
2022-12-18T00:33:56.519Z,-12.30
2022-12-18T00:36:28.031Z,-12.50
2022-12-18T00:38:57.000Z,-12.50
2022-12-18T00:41:39.836Z,-12.60
2022-12-18T00:44:09.435Z,-12.70
2022-12-18T00:46:37.325Z,-12.80
2022-12-18T00:49:05.321Z,-12.90
2022-12-18T00:51:34.540Z,-12.90
2022-12-18T00:54:02.361Z,-13.00
2022-12-18T00:56:30.217Z,-13.00
2022-12-18T00:58:58.055Z,-13.10
2022-12-18T01:01:26.075Z,-13.00
2022-12-18T01:03:54.023Z,-12.90
2022-12-18T01:06:21.898Z,-13.00
2022-12-18T01:08:51.068Z,-13.10
2022-12-18T01:11:21.257Z,-13.20
2022-12-18T01:13:49.480Z,-13.30
2022-12-18T01:16:18.800Z,-13.40
2022-12-18T01:18:47.091Z,-13.60
2022-12-18T01:21:17.930Z,-13.70
2022-12-18T01:23:45.797Z,-13.80
2022-12-18T01:26:16.495Z,-13.70
2022-12-18T01:28:45.720Z,-13.80
2022-12-18T01:31:15.930Z,-13.70
2022-12-18T01:33:43.911Z,-13.80
2022-12-18T01:36:17.664Z,-13.90
2022-12-18T01:38:45.607Z,-13.90
2022-12-18T01:41:16.225Z,-13.90
2022-12-18T01:43:50.487Z,-13.90
2022-12-18T01:46:20.167Z,-13.90
2022-12-18T01:48:50.142Z,-13.80
2022-12-18T01:51:18.992Z,-13.70
2022-12-18T01:53:48.213Z,-13.70
2022-12-18T01:56:20.342Z,-13.60
2022-12-18T01:58:55.281Z,-13.50
2022-12-18T02:01:25.453Z,-13.40
2022-12-18T02:03:54.219Z,-13.30
2022-12-18T02:06:28.845Z,-13.30
2022-12-18T02:09:09.817Z,-13.30
2022-12-18T02:11:51.395Z,-13.20
2022-12-18T02:14:30.224Z,-13.10
2022-12-18T02:17:04.927Z,-13.00
2022-12-18T02:19:45.387Z,-12.90
2022-12-18T02:22:28.352Z,-12.90
2022-12-18T02:25:06.842Z,-12.90
2022-12-18T02:27:39.010Z,-13.00
2022-12-18T02:30:08.949Z,-13.10
2022-12-18T02:32:41.642Z,-13.30
2022-12-18T02:35:13.219Z,-13.30
2022-12-18T02:37:42.535Z,-13.20
2022-12-18T02:40:12.610Z,-13.20
2022-12-18T02:42:41.756Z,-13.20
2022-12-18T02:45:10.293Z,-13.10
2022-12-18T02:47:42.481Z,-13.00
2022-12-18T02:50:18.862Z,-13.00
2022-12-18T02:52:54.894Z,-13.00
2022-12-18T02:55:33.655Z,-13.00
2022-12-18T02:58:07.609Z,-13.00
2022-12-18T03:00:39.698Z,-13.00
2022-12-18T03:03:12.309Z,-13.10
2022-12-18T03:05:45.261Z,-13.00
2022-12-18T03:08:17.587Z,-13.10
2022-12-18T03:10:51.900Z,-13.10
2022-12-18T03:13:25.560Z,-13.20
2022-12-18T03:15:57.054Z,-13.10
2022-12-18T03:18:28.573Z,-13.20
2022-12-18T03:21:00.410Z,-13.10
2022-12-18T03:23:32.564Z,-13.00
2022-12-18T03:26:07.637Z,-12.90
2022-12-18T03:28:41.569Z,-12.90
2022-12-18T03:31:13.322Z,-13.00
2022-12-18T03:33:46.316Z,-13.10
2022-12-18T03:36:14.266Z,-13.10
2022-12-18T03:38:42.142Z,-13.20
2022-12-18T03:41:18.280Z,-13.30
2022-12-18T03:43:54.089Z,-13.30
2022-12-18T03:46:29.100Z,-13.40
2022-12-18T03:49:04.242Z,-13.40
2022-12-18T03:51:42.755Z,-13.40
2022-12-18T03:54:11.942Z,-13.40
2022-12-18T03:56:44.041Z,-13.40
2022-12-18T03:59:14.963Z,-13.50
2022-12-18T04:01:48.236Z,-13.50
2022-12-18T04:04:18.291Z,-13.60
2022-12-18T04:06:48.651Z,-13.70
2022-12-18T04:09:16.810Z,-13.80
2022-12-18T04:11:45.363Z,-13.90
2022-12-18T04:14:17.930Z,-13.90
2022-12-18T04:16:46.442Z,-13.90
2022-12-18T04:19:14.473Z,-13.90
2022-12-18T04:21:42.319Z,-13.70
2022-12-18T04:24:10.371Z,-13.60
2022-12-18T04:26:39.271Z,-13.60
2022-12-18T04:29:07.103Z,-13.50
2022-12-18T04:31:36.428Z,-13.50
2022-12-18T04:34:04.451Z,-13.50
2022-12-18T04:36:32.282Z,-13.50
2022-12-18T04:39:00.462Z,-13.60
2022-12-18T04:41:28.302Z,-13.80
2022-12-18T04:43:56.107Z,-13.80
2022-12-18T04:46:23.986Z,-13.80
2022-12-18T04:48:53.182Z,-13.80
2022-12-18T04:51:26.152Z,-13.70
2022-12-18T04:53:54.412Z,-13.70
2022-12-18T04:56:22.522Z,-13.90
2022-12-18T04:58:50.726Z,-14.00
2022-12-18T05:01:20.354Z,-14.00
2022-12-18T05:03:48.493Z,-13.90
2022-12-18T05:06:17.716Z,-13.80
2022-12-18T05:08:45.571Z,-13.80
2022-12-18T05:11:16.554Z,-13.80
2022-12-18T05:13:45.301Z,-13.70
2022-12-18T05:16:14.355Z,-13.40
2022-12-18T05:18:42.684Z,-13.40
2022-12-18T05:21:10.615Z,-13.60
2022-12-18T05:23:40.197Z,-13.60
2022-12-18T05:26:08.953Z,-13.50
2022-12-18T05:28:38.135Z,-13.50
2022-12-18T05:31:06.912Z,-13.10
2022-12-18T05:33:36.438Z,-13.10
2022-12-18T05:36:06.183Z,-13.30
2022-12-18T05:38:35.990Z,-13.30
2022-12-18T05:41:05.998Z,-13.50
2022-12-18T05:43:35.542Z,-13.80
2022-12-18T05:46:06.777Z,-14.00
2022-12-18T05:48:35.157Z,-14.10
2022-12-18T05:51:07.951Z,-14.10
2022-12-18T05:53:36.850Z,-14.10
2022-12-18T05:56:08.489Z,-14.10
2022-12-18T05:58:36.404Z,-14.20
2022-12-18T06:01:09.971Z,-14.20
2022-12-18T06:03:37.908Z,-14.10
2022-12-18T06:06:06.226Z,-14.10
2022-12-18T06:08:34.013Z,-13.90
2022-12-18T06:11:01.858Z,-13.90
2022-12-18T06:13:31.019Z,-13.90
2022-12-18T06:15:58.841Z,-13.90
2022-12-18T06:18:26.717Z,-13.80
2022-12-18T06:20:58.132Z,-13.60
2022-12-18T06:23:26.272Z,-13.70
2022-12-18T06:25:54.712Z,-13.60
2022-12-18T06:28:22.973Z,-13.70
2022-12-18T06:30:52.109Z,-13.60
2022-12-18T06:33:20.003Z,-13.60
2022-12-18T06:35:47.825Z,-13.50
2022-12-18T06:38:15.790Z,-13.50
2022-12-18T06:40:43.542Z,-13.50
2022-12-18T06:43:11.318Z,-13.60
2022-12-18T06:45:39.186Z,-13.70
2022-12-18T06:48:08.496Z,-13.80
2022-12-18T06:50:37.898Z,-14.00
2022-12-18T06:53:05.661Z,-14.10
2022-12-18T06:55:35.255Z,-14.20
2022-12-18T06:58:05.315Z,-14.20
2022-12-18T07:00:33.086Z,-14.20
2022-12-18T07:03:00.937Z,-14.00
2022-12-18T07:05:30.164Z,-13.90
2022-12-18T07:07:58.134Z,-13.90
2022-12-18T07:10:26.248Z,-13.90
2022-12-18T07:12:54.183Z,-13.90
2022-12-18T07:15:21.985Z,-14.00
2022-12-18T07:17:49.786Z,-14.00
2022-12-18T07:20:17.804Z,-14.10
2022-12-18T07:22:49.734Z,-14.00
2022-12-18T07:25:19.837Z,-13.90
2022-12-18T07:27:47.657Z,-13.80
2022-12-18T07:30:15.598Z,-13.80
2022-12-18T07:32:44.499Z,-13.80
2022-12-18T07:35:12.281Z,-13.80
2022-12-18T07:37:40.075Z,-13.80
2022-12-18T07:40:11.097Z,-13.90
2022-12-18T07:42:39.013Z,-13.90
2022-12-18T07:45:07.861Z,-13.80
2022-12-18T07:47:37.644Z,-13.60
2022-12-18T07:50:06.837Z,-13.30
2022-12-18T07:52:34.705Z,-13.00
2022-12-18T07:55:02.517Z,-12.90
2022-12-18T07:57:50.043Z,-12.90
2022-12-18T08:00:19.226Z,-12.80
2022-12-18T08:02:47.250Z,-12.60
2022-12-18T08:05:16.779Z,-12.60
2022-12-18T08:07:44.622Z,-12.70
2022-12-18T08:10:12.419Z,-12.60
2022-12-18T08:12:41.557Z,-12.20
2022-12-18T08:15:10.013Z,-11.80
2022-12-18T08:17:37.819Z,-11.50
2022-12-18T08:20:06.270Z,-11.40
2022-12-18T08:22:36.277Z,-11.20
2022-12-18T08:25:04.655Z,-11.10
2022-12-18T08:27:33.210Z,-11.00
2022-12-18T08:30:03.954Z,-11.10
2022-12-18T08:32:33.752Z,-11.10
2022-12-18T08:35:01.652Z,-11.20
2022-12-18T08:37:29.522Z,-11.10
2022-12-18T08:39:57.311Z,-10.90
2022-12-18T08:42:42.679Z,-10.80
2022-12-18T08:45:12.573Z,-10.70
2022-12-18T08:47:40.353Z,-10.40
2022-12-18T08:50:08.778Z,-10.20
2022-12-18T08:52:36.579Z,-10.00
2022-12-18T08:55:04.554Z,-9.90
2022-12-18T08:57:32.428Z,-9.60
2022-12-18T09:00:00.277Z,-9.40
2022-12-18T09:02:29.489Z,-9.20
2022-12-18T09:04:57.902Z,-8.90
2022-12-18T09:07:25.942Z,-8.70
2022-12-18T09:09:53.740Z,-8.60
2022-12-18T09:12:21.546Z,-8.30
2022-12-18T09:14:49.327Z,-8.10
2022-12-18T09:17:17.264Z,-7.80
2022-12-18T09:19:46.462Z,-7.60
2022-12-18T09:22:14.270Z,-7.50
2022-12-18T09:24:42.051Z,-7.50
2022-12-18T09:27:09.958Z,-7.50
2022-12-18T09:29:37.888Z,-7.30
2022-12-18T09:32:06.350Z,-7.20
2022-12-18T09:34:34.454Z,-7.00
2022-12-18T09:37:03.645Z,-6.80
2022-12-18T09:39:31.527Z,-6.60
2022-12-18T09:42:00.568Z,-6.60
2022-12-18T09:44:31.743Z,-6.70
2022-12-18T09:47:10.412Z,-6.60
2022-12-18T09:49:44.026Z,-6.50
2022-12-18T09:52:17.939Z,-6.40
2022-12-18T09:54:50.649Z,-6.40
2022-12-18T09:57:22.183Z,-6.30
2022-12-18T09:59:55.090Z,-6.10
2022-12-18T10:02:25.570Z,-6.00
2022-12-18T10:05:03.934Z,-5.90
2022-12-18T10:07:41.942Z,-5.80
2022-12-18T10:10:19.391Z,-5.60
2022-12-18T10:13:04.117Z,-5.70
2022-12-18T10:15:38.276Z,-5.60
2022-12-18T10:18:22.274Z,-5.50
2022-12-18T10:20:53.744Z,-5.40
2022-12-18T10:23:28.441Z,-5.30
2022-12-18T10:26:02.428Z,-5.20
2022-12-18T10:28:32.614Z,-5.20
2022-12-18T10:31:01.329Z,-5.00
2022-12-18T10:33:32.802Z,-4.70
2022-12-18T10:36:01.184Z,-4.60
2022-12-18T10:38:31.759Z,-4.40
2022-12-18T10:41:01.164Z,-4.40
2022-12-18T10:43:31.107Z,-4.30
2022-12-18T10:46:15.434Z,-4.30
2022-12-18T10:48:52.416Z,-4.00
2022-12-18T10:51:25.853Z,-3.80
2022-12-18T10:53:58.070Z,-3.40
2022-12-18T10:56:29.052Z,-3.60
2022-12-18T10:59:03.344Z,-3.70
2022-12-18T11:01:48.436Z,-3.80
2022-12-18T11:04:20.834Z,-3.90
2022-12-18T11:06:57.509Z,-3.90
2022-12-18T11:09:28.162Z,-3.80
2022-12-18T11:11:57.450Z,-3.60
2022-12-18T11:14:27.795Z,-3.40
2022-12-18T11:17:24.407Z,-3.60
2022-12-18T11:19:45.300Z,-3.40
2022-12-18T11:22:23.037Z,-3.50
2022-12-18T11:25:30.037Z,-3.50
2022-12-18T11:27:50.959Z,-3.40
2022-12-18T11:30:24.611Z,-3.50
2022-12-18T11:32:54.289Z,-3.40
2022-12-18T11:35:27.011Z,-3.20
2022-12-18T11:37:59.784Z,-3.10
2022-12-18T11:40:40.729Z,-3.10
2022-12-18T11:43:12.813Z,-3.00
2022-12-18T11:45:47.766Z,-2.70
2022-12-18T11:48:20.137Z,-2.50
2022-12-18T11:50:52.990Z,-2.40
2022-12-18T11:53:21.907Z,-2.30
2022-12-18T11:56:06.064Z,-2.40
2022-12-18T11:58:49.653Z,-2.40
2022-12-18T12:01:36.507Z,-2.20
2022-12-18T12:04:40.227Z,-2.10
2022-12-18T12:07:22.078Z,-2.00
2022-12-18T12:09:57.075Z,-1.90
2022-12-18T12:12:48.772Z,-1.70
2022-12-18T12:15:29.087Z,-1.60
2022-12-18T12:18:08.185Z,-1.60
2022-12-18T12:20:49.549Z,-1.50
2022-12-18T12:23:27.869Z,-1.70
2022-12-18T12:26:03.074Z,-1.80
2022-12-18T12:28:54.040Z,-1.80
2022-12-18T12:31:34.487Z,-1.90
2022-12-18T12:34:10.550Z,-2.10
2022-12-18T12:36:48.703Z,-2.00
2022-12-18T12:39:22.546Z,-2.30
2022-12-18T12:42:07.937Z,-2.50
2022-12-18T12:44:44.213Z,-2.30
2022-12-18T12:47:18.382Z,-2.20
2022-12-18T12:49:48.780Z,-1.90
2022-12-18T12:52:27.296Z,-1.90
2022-12-18T12:54:56.002Z,-1.60
2022-12-18T12:57:26.775Z,-1.40
2022-12-18T13:00:02.719Z,-1.30
2022-12-18T13:02:35.535Z,-1.20
2022-12-18T13:05:13.941Z,-1.40
2022-12-18T13:07:48.399Z,-1.60
2022-12-18T13:10:28.651Z,-1.60
2022-12-18T13:12:56.997Z,-1.40
2022-12-18T13:15:31.281Z,-1.30
2022-12-18T13:18:22.267Z,-1.40
2022-12-18T13:20:56.480Z,-1.40
2022-12-18T13:23:35.956Z,-1.40
2022-12-18T13:26:33.012Z,-1.40
2022-12-18T13:29:07.198Z,-1.40
2022-12-18T13:32:02.411Z,-1.50
2022-12-18T13:34:32.760Z,-1.40
2022-12-18T13:37:34.528Z,-1.60
2022-12-18T13:40:02.438Z,-1.60
2022-12-18T13:43:00.731Z,-1.70
2022-12-18T13:45:47.547Z,-1.60
2022-12-18T13:48:28.021Z,-1.80
2022-12-18T13:51:00.659Z,-1.90
2022-12-18T13:53:32.453Z,-1.80
2022-12-18T13:56:00.807Z,-2.00
2022-12-18T13:58:28.747Z,-2.20
2022-12-18T14:00:57.688Z,-2.30
2022-12-18T14:03:28.686Z,-2.40
2022-12-18T14:06:01.813Z,-2.40
2022-12-18T14:08:35.932Z,-2.40
2022-12-18T14:11:07.702Z,-2.40
2022-12-18T14:13:39.382Z,-2.40
2022-12-18T14:16:09.823Z,-2.40
2022-12-18T14:18:46.872Z,-2.50
2022-12-18T14:21:22.716Z,-2.60
2022-12-18T14:23:50.692Z,-2.70
2022-12-18T14:26:29.239Z,-2.80
2022-12-18T14:28:57.411Z,-3.00
2022-12-18T14:31:26.904Z,-3.00
2022-12-18T14:33:56.916Z,-3.00
2022-12-18T14:36:26.384Z,-3.10
2022-12-18T14:38:55.623Z,-3.20
2022-12-18T14:41:24.732Z,-3.20
2022-12-18T14:43:54.805Z,-3.30
2022-12-18T14:46:34.631Z,-3.50
2022-12-18T14:49:06.249Z,-3.60
2022-12-18T14:51:36.076Z,-3.60
2022-12-18T14:54:08.847Z,-3.80
2022-12-18T14:56:38.561Z,-4.00
2022-12-18T14:59:08.546Z,-4.10
2022-12-18T15:01:39.180Z,-4.30
2022-12-18T15:04:27.490Z,-4.40
2022-12-18T15:07:11.641Z,-4.60
2022-12-18T15:09:40.328Z,-4.90
2022-12-18T15:12:26.769Z,-5.00
2022-12-18T15:14:54.594Z,-5.20
2022-12-18T15:17:24.779Z,-5.40
2022-12-18T15:20:02.112Z,-5.60
2022-12-18T15:22:31.636Z,-5.70
2022-12-18T15:25:00.775Z,-5.80
2022-12-18T15:27:32.348Z,-5.90
2022-12-18T15:30:28.647Z,-6.00
2022-12-18T15:33:25.665Z,-6.00
2022-12-18T15:36:00.094Z,-6.00
2022-12-18T15:38:28.346Z,-6.00
2022-12-18T15:40:56.813Z,-5.90
2022-12-18T15:43:38.717Z,-6.00
2022-12-18T15:46:08.597Z,-6.20
2022-12-18T15:48:40.864Z,-6.50
2022-12-18T15:51:16.737Z,-6.70
2022-12-18T15:53:45.397Z,-6.70
2022-12-18T15:56:31.716Z,-6.70
2022-12-18T15:59:00.004Z,-6.70
2022-12-18T16:01:30.829Z,-6.70
2022-12-18T16:03:59.393Z,-6.70
2022-12-18T16:06:36.515Z,-6.60
2022-12-18T16:09:17.221Z,-6.70
2022-12-18T16:11:48.392Z,-6.60
2022-12-18T16:14:21.204Z,-6.60
2022-12-18T16:16:51.061Z,-6.50
2022-12-18T16:19:19.456Z,-6.50
2022-12-18T16:21:51.018Z,-6.50
2022-12-18T16:24:22.740Z,-6.50
2022-12-18T16:26:52.313Z,-6.40
2022-12-18T16:29:25.472Z,-6.50
2022-12-18T16:31:53.987Z,-6.40
2022-12-18T16:34:24.947Z,-6.30
2022-12-18T16:37:01.692Z,-6.30
2022-12-18T16:39:34.122Z,-6.30
2022-12-18T16:42:03.369Z,-6.20
2022-12-18T16:44:34.283Z,-6.10
2022-12-18T16:47:03.168Z,-6.00
2022-12-18T16:49:31.625Z,-6.00
2022-12-18T16:52:00.793Z,-5.90
2022-12-18T16:54:30.384Z,-5.90
2022-12-18T16:56:58.542Z,-5.90
2022-12-18T16:59:27.286Z,-5.80
2022-12-18T17:01:57.411Z,-5.80
2022-12-18T17:04:25.447Z,-5.70
2022-12-18T17:06:53.846Z,-5.70
2022-12-18T17:09:25.857Z,-5.70
2022-12-18T17:11:53.793Z,-5.70
2022-12-18T17:14:23.936Z,-5.60
2022-12-18T17:17:19.196Z,-5.60
2022-12-18T17:19:40.160Z,-5.50
2022-12-18T17:22:08.160Z,-5.40
2022-12-18T17:24:37.451Z,-5.40
2022-12-18T17:27:05.518Z,-5.40
2022-12-18T17:29:33.338Z,-5.40
2022-12-18T17:32:01.187Z,-5.30
2022-12-18T17:34:30.692Z,-5.30
2022-12-18T17:36:58.988Z,-5.40
2022-12-18T17:39:28.639Z,-5.40
2022-12-18T17:41:57.885Z,-5.50
2022-12-18T17:44:25.777Z,-5.50
2022-12-18T17:46:53.741Z,-5.50
2022-12-18T17:49:21.628Z,-5.40
2022-12-18T17:51:49.662Z,-5.40
2022-12-18T17:54:17.467Z,-5.30
2022-12-18T17:56:46.134Z,-5.30
2022-12-18T17:59:16.002Z,-5.30
2022-12-18T18:01:45.189Z,-5.30
2022-12-18T18:04:16.499Z,-5.20
2022-12-18T18:06:44.409Z,-5.20
2022-12-18T18:09:16.290Z,-5.30
2022-12-18T18:12:03.009Z,-5.30
2022-12-18T18:14:32.984Z,-5.30
2022-12-18T18:17:04.885Z,-5.30
2022-12-18T18:19:34.159Z,-5.20
2022-12-18T18:22:03.127Z,-5.20
2022-12-18T18:24:31.914Z,-5.30
2022-12-18T18:27:00.512Z,-5.30
2022-12-18T18:29:30.258Z,-5.40
2022-12-18T18:32:00.160Z,-5.50
2022-12-18T18:34:30.614Z,-5.50
2022-12-18T18:36:58.471Z,-5.40
2022-12-18T18:39:26.765Z,-5.40
2022-12-18T18:41:54.905Z,-5.30
2022-12-18T18:44:25.752Z,-5.20
2022-12-18T18:46:56.060Z,-5.20
2022-12-18T18:49:27.461Z,-5.20
2022-12-18T18:51:56.218Z,-5.20
2022-12-18T18:54:24.348Z,-5.20
2022-12-18T18:59:40.132Z,-5.20
2022-12-18T19:02:08.195Z,-5.20
2022-12-18T19:04:40.902Z,-5.20
2022-12-18T19:07:15.513Z,-5.20
2022-12-18T19:09:58.000Z,-5.20
2022-12-18T19:12:49.007Z,-5.30
2022-12-18T19:15:16.979Z,-5.40
2022-12-18T19:17:44.846Z,-5.40
2022-12-18T19:20:16.715Z,-5.40
2022-12-18T19:22:47.956Z,-5.30
2022-12-18T19:25:29.958Z,-5.20
2022-12-18T19:28:08.265Z,-5.20
2022-12-18T19:30:48.975Z,-5.20
2022-12-18T19:33:41.594Z,-5.20
2022-12-18T19:36:14.085Z,-5.20
2022-12-18T19:38:43.050Z,-5.20
2022-12-18T19:41:13.976Z,-5.30
2022-12-18T19:43:42.987Z,-5.30
2022-12-18T19:46:13.139Z,-5.30
2022-12-18T19:48:41.881Z,-5.30
2022-12-18T19:51:15.582Z,-5.20
2022-12-18T19:53:43.591Z,-5.00
2022-12-18T19:56:13.355Z,-4.90
2022-12-18T19:58:42.748Z,-4.80
2022-12-18T20:01:10.853Z,-4.80
2022-12-18T20:03:41.485Z,-4.70
2022-12-18T20:06:13.070Z,-4.70
2022-12-18T20:08:41.318Z,-4.70
2022-12-18T20:11:09.608Z,-4.70
2022-12-18T20:13:37.632Z,-4.70
2022-12-18T20:16:06.161Z,-4.70
2022-12-18T20:18:34.002Z,-4.80
2022-12-18T20:21:02.133Z,-4.80
2022-12-18T20:23:33.208Z,-4.80
2022-12-18T20:26:02.682Z,-4.80
2022-12-18T20:28:32.452Z,-4.80
2022-12-18T20:31:01.246Z,-4.80
2022-12-18T20:33:29.682Z,-4.80
2022-12-18T20:36:03.276Z,-4.80
2022-12-18T20:38:33.619Z,-4.80
2022-12-18T20:41:03.418Z,-4.70
2022-12-18T20:43:31.247Z,-4.70
2022-12-18T20:46:03.230Z,-4.60
2022-12-18T20:48:31.726Z,-4.60
2022-12-18T20:51:00.276Z,-4.60
2022-12-18T20:53:33.257Z,-4.60
2022-12-18T20:56:02.164Z,-4.60
2022-12-18T20:58:30.107Z,-4.40
2022-12-18T21:01:05.669Z,-4.40
2022-12-18T21:03:33.684Z,-4.40
2022-12-18T21:06:01.573Z,-4.40
2022-12-18T21:08:29.400Z,-4.40
2022-12-18T21:11:32.321Z,-4.40
2022-12-18T21:14:01.207Z,-4.40
2022-12-18T21:16:29.225Z,-4.40
2022-12-18T21:18:57.060Z,-4.40
2022-12-18T21:21:26.850Z,-4.30
2022-12-18T21:23:55.078Z,-4.30
2022-12-18T21:26:26.105Z,-4.30
2022-12-18T21:28:55.973Z,-4.30
2022-12-18T21:31:24.381Z,-4.20
2022-12-18T21:33:52.656Z,-4.10
2022-12-18T21:36:24.531Z,-4.10
2022-12-18T21:38:53.757Z,-4.10
2022-12-18T21:41:42.359Z,-4.00
2022-12-18T21:44:14.266Z,-4.10
2022-12-18T21:46:44.365Z,-4.00
2022-12-18T21:49:14.370Z,-4.10
2022-12-18T21:51:42.500Z,-4.00
2022-12-18T21:54:10.359Z,-4.10
2022-12-18T21:56:47.450Z,-4.10
2022-12-18T21:59:16.745Z,-4.00
2022-12-18T22:01:44.905Z,-4.00
2022-12-18T22:04:13.594Z,-3.90
2022-12-18T22:06:42.593Z,-3.90
2022-12-18T22:09:11.720Z,-3.80
2022-12-18T22:11:39.584Z,-3.80
2022-12-18T22:14:09.118Z,-3.80
2022-12-18T22:16:36.996Z,-3.80
2022-12-18T22:19:06.681Z,-3.80
2022-12-18T22:21:36.160Z,-3.80
2022-12-18T22:24:06.458Z,-3.80
2022-12-18T22:26:39.771Z,-3.70
2022-12-18T22:29:29.676Z,-3.70
2022-12-18T22:31:59.377Z,-3.60
2022-12-18T22:34:27.332Z,-3.60
2022-12-18T22:36:55.480Z,-3.60
2022-12-18T22:39:25.484Z,-3.60
2022-12-18T22:41:53.964Z,-3.60
2022-12-18T22:44:26.600Z,-3.60
2022-12-18T22:47:06.265Z,-3.60
2022-12-18T22:49:35.673Z,-3.50
2022-12-18T22:52:04.467Z,-3.50
2022-12-18T22:54:32.350Z,-3.50
2022-12-18T22:57:00.236Z,-3.40
2022-12-18T22:59:29.381Z,-3.40
2022-12-18T23:01:59.041Z,-3.40
2022-12-18T23:04:30.170Z,-3.40
2022-12-18T23:07:04.551Z,-3.40
2022-12-18T23:09:32.503Z,-3.40
2022-12-18T23:12:00.366Z,-3.40
2022-12-18T23:14:29.731Z,-3.30
2022-12-18T23:16:57.616Z,-3.30
2022-12-18T23:19:25.995Z,-3.30
2022-12-18T23:21:54.531Z,-3.30
2022-12-18T23:24:24.629Z,-3.20
2022-12-18T23:26:52.556Z,-3.20
2022-12-18T23:29:20.519Z,-3.20
2022-12-18T23:31:49.726Z,-3.20
2022-12-18T23:34:17.960Z,-3.20
2022-12-18T23:36:46.964Z,-3.10
2022-12-18T23:39:29.111Z,-3.10
2022-12-18T23:42:00.502Z,-3.10
2022-12-18T23:44:28.932Z,-3.00
2022-12-18T23:46:58.233Z,-3.10
2022-12-18T23:49:26.172Z,-3.00
2022-12-18T23:51:55.098Z,-3.00
2022-12-18T23:54:30.880Z,-3.00
2022-12-18T23:57:01.515Z,-2.90
2022-12-18T23:59:29.399Z,-2.90
